createdAt,value
2023-03-01T00:00:06.017Z,39.85
2023-03-01T00:02:32.837Z,39.66
2023-03-01T00:04:59.177Z,39.92
2023-03-01T00:07:25.506Z,40.14
2023-03-01T00:09:51.836Z,39.87
2023-03-01T00:12:18.427Z,39.93
2023-03-01T00:14:45.878Z,39.58
2023-03-01T00:17:12.476Z,39.66
2023-03-01T00:19:38.808Z,39.71
2023-03-01T00:22:05.241Z,39.97
2023-03-01T00:24:31.671Z,40.01
2023-03-01T00:26:58.102Z,40.01
2023-03-01T00:29:25.864Z,39.85
2023-03-01T00:31:52.265Z,39.84
2023-03-01T00:34:19.035Z,39.98
2023-03-01T00:36:45.465Z,40.26
2023-03-01T00:39:15.515Z,40.04
2023-03-01T00:41:43.144Z,39.93
2023-03-01T00:44:09.989Z,40.43
2023-03-01T00:46:36.467Z,40.30
2023-03-01T00:49:05.374Z,40.46
2023-03-01T00:51:32.766Z,40.80
2023-03-01T00:54:02.243Z,40.91
2023-03-01T00:56:30.156Z,40.52
2023-03-01T00:58:57.162Z,40.41
2023-03-01T01:01:28.281Z,40.70
2023-03-01T01:03:58.067Z,40.86
2023-03-01T01:06:27.513Z,40.90
2023-03-01T01:08:55.575Z,40.93
2023-03-01T01:11:24.199Z,40.44
2023-03-01T01:13:51.082Z,40.84
2023-03-01T01:16:21.733Z,41.00
2023-03-01T01:18:48.480Z,40.47
2023-03-01T01:21:19.012Z,40.75
2023-03-01T01:23:46.236Z,40.68
2023-03-01T01:26:15.642Z,40.79
2023-03-01T01:28:43.243Z,40.86
2023-03-01T01:31:09.672Z,40.85
2023-03-01T01:33:36.154Z,41.15
2023-03-01T01:36:02.836Z,40.81
2023-03-01T01:38:29.296Z,40.72
2023-03-01T01:40:55.967Z,41.15
2023-03-01T01:43:31.793Z,41.37
2023-03-01T01:46:03.068Z,41.54
2023-03-01T01:48:41.489Z,41.25
2023-03-01T01:51:12.717Z,41.27
2023-03-01T01:53:41.021Z,41.18
2023-03-01T01:56:09.383Z,41.73
2023-03-01T01:58:36.824Z,40.94
2023-03-01T02:01:04.320Z,40.67
2023-03-01T02:03:34.646Z,40.91
2023-03-01T02:06:10.306Z,40.87
2023-03-01T02:08:39.521Z,41.00
2023-03-01T02:11:06.543Z,40.84
2023-03-01T02:13:34.610Z,41.42
2023-03-01T02:16:04.884Z,41.00
2023-03-01T02:18:31.489Z,41.26
2023-03-01T02:21:32.919Z,40.98
2023-03-01T02:24:12.071Z,41.29
2023-03-01T02:26:46.313Z,41.80
2023-03-01T02:29:12.813Z,41.19
2023-03-01T02:31:46.063Z,41.25
2023-03-01T02:34:17.918Z,41.32
2023-03-01T02:37:09.318Z,42.38
2023-03-01T02:39:43.012Z,42.42
2023-03-01T02:42:13.770Z,41.73
2023-03-01T02:44:40.154Z,41.28
2023-03-01T02:47:07.224Z,41.40
2023-03-01T02:49:37.711Z,41.75
2023-03-01T02:52:22.148Z,42.47
2023-03-01T02:54:57.478Z,41.76
2023-03-01T02:57:25.931Z,41.36
2023-03-01T02:59:53.898Z,41.41
2023-03-01T03:02:36.902Z,41.74
2023-03-01T03:05:14.462Z,41.47
2023-03-01T03:07:42.810Z,41.46
2023-03-01T03:10:12.121Z,42.53
2023-03-01T03:12:39.250Z,41.40
2023-03-01T03:15:09.759Z,41.53
2023-03-01T03:17:38.370Z,41.86
2023-03-01T03:20:12.560Z,41.86
2023-03-01T03:22:42.104Z,41.87
2023-03-01T03:25:12.661Z,41.85
2023-03-01T03:27:40.406Z,41.46
2023-03-01T03:30:13.221Z,41.83
2023-03-01T03:32:41.516Z,41.84
2023-03-01T03:35:10.453Z,42.70
2023-03-01T03:37:57.728Z,41.79
2023-03-01T03:40:24.235Z,41.56
2023-03-01T03:42:50.954Z,41.81
2023-03-01T03:45:18.326Z,41.46
2023-03-01T03:47:45.690Z,42.22
2023-03-01T03:50:14.890Z,42.13
2023-03-01T03:52:41.568Z,41.67
2023-03-01T03:55:10.567Z,42.18
2023-03-01T03:57:39.369Z,42.15
2023-03-01T04:00:13.779Z,41.81
2023-03-01T04:02:41.952Z,42.02
2023-03-01T04:05:10.212Z,41.91
2023-03-01T04:07:37.435Z,41.66
2023-03-01T04:10:09.126Z,42.05
2023-03-01T04:12:35.836Z,41.97
2023-03-01T04:15:13.485Z,42.06
2023-03-01T04:17:44.872Z,41.92
2023-03-01T04:20:25.663Z,42.54
2023-03-01T04:23:17.342Z,42.95
2023-03-01T04:26:04.294Z,42.86
2023-03-01T04:28:40.879Z,42.71
2023-03-01T04:31:18.503Z,42.26
2023-03-01T04:33:53.484Z,42.42
2023-03-01T04:36:22.916Z,42.22
2023-03-01T04:38:49.422Z,41.88
2023-03-01T04:41:18.804Z,42.01
2023-03-01T04:43:45.617Z,42.31
2023-03-01T04:46:15.953Z,42.49
2023-03-01T04:48:45.243Z,42.29
2023-03-01T04:51:14.614Z,42.33
2023-03-01T04:53:42.508Z,42.00
2023-03-01T04:56:09.217Z,42.19
2023-03-01T04:58:35.732Z,42.30
2023-03-01T05:01:02.335Z,42.30
2023-03-01T05:03:29.786Z,42.11
2023-03-01T05:06:00.888Z,42.58
2023-03-01T05:08:28.147Z,42.54
2023-03-01T05:10:55.380Z,42.43
2023-03-01T05:13:22.734Z,42.52
2023-03-01T05:16:00.839Z,42.62
2023-03-01T05:18:28.158Z,42.93
2023-03-01T05:21:08.003Z,42.61
2023-03-01T05:23:41.239Z,42.26
2023-03-01T05:26:22.433Z,42.13
2023-03-01T05:28:57.975Z,42.28
2023-03-01T05:31:25.835Z,42.31
2023-03-01T05:33:56.565Z,42.34
2023-03-01T05:36:24.653Z,42.46
2023-03-01T05:38:51.960Z,42.48
2023-03-01T05:41:19.214Z,42.65
2023-03-01T05:43:47.834Z,42.67
2023-03-01T05:46:16.573Z,42.53
2023-03-01T05:48:43.446Z,42.71
2023-03-01T05:51:14.099Z,42.77
2023-03-01T05:53:42.368Z,42.81
2023-03-01T05:56:09.382Z,42.64
2023-03-01T05:58:36.145Z,42.89
2023-03-01T06:01:02.496Z,42.65
2023-03-01T06:03:30.797Z,42.47
2023-03-01T06:05:59.094Z,43.61
2023-03-01T06:08:31.597Z,42.72
2023-03-01T06:10:58.579Z,42.59
2023-03-01T06:16:16.001Z,42.63
2023-03-01T06:18:42.548Z,42.75
2023-03-01T06:21:10.007Z,42.78
2023-03-01T06:23:36.589Z,43.03
2023-03-01T06:26:06.986Z,42.76
2023-03-01T06:28:33.382Z,42.66
2023-03-01T06:31:00.045Z,42.93
2023-03-01T06:33:27.755Z,42.87
2023-03-01T06:35:57.769Z,43.42
2023-03-01T06:38:25.968Z,43.14
2023-03-01T06:40:55.361Z,42.97
2023-03-01T06:43:22.358Z,42.93
2023-03-01T06:45:48.864Z,43.12
2023-03-01T06:48:15.260Z,43.29
2023-03-01T06:50:41.840Z,43.03
2023-03-01T06:53:08.620Z,43.35
2023-03-01T06:55:35.080Z,43.22
2023-03-01T06:58:02.938Z,43.29
2023-03-01T07:00:29.897Z,43.56
2023-03-01T07:02:59.801Z,43.26
2023-03-01T07:05:26.201Z,43.43
2023-03-01T07:07:54.734Z,43.21
2023-03-01T07:10:21.330Z,43.27
2023-03-01T07:12:47.789Z,43.06
2023-03-01T07:15:16.186Z,43.08
2023-03-01T07:17:42.833Z,43.37
2023-03-01T07:20:10.045Z,43.07
2023-03-01T07:22:36.425Z,43.33
2023-03-01T07:25:02.879Z,43.49
2023-03-01T07:27:29.289Z,43.13
2023-03-01T07:29:55.663Z,43.35
2023-03-01T07:32:22.685Z,43.24
2023-03-01T07:34:49.349Z,42.98
2023-03-01T07:37:15.746Z,43.40
2023-03-01T07:39:42.454Z,43.00
2023-03-01T07:42:09.818Z,42.78
2023-03-01T07:44:36.511Z,43.00
2023-03-01T07:47:05.012Z,43.17
2023-03-01T07:49:32.182Z,43.19
2023-03-01T07:51:58.612Z,43.00
2023-03-01T07:54:25.433Z,42.67
2023-03-01T07:56:52.016Z,42.65
2023-03-01T07:59:18.764Z,43.12
2023-03-01T08:01:45.359Z,42.66
2023-03-01T08:04:11.879Z,42.81
2023-03-01T08:06:38.275Z,42.69
2023-03-01T08:09:04.738Z,42.54
2023-03-01T08:11:31.392Z,42.60
2023-03-01T08:13:59.207Z,42.72
2023-03-01T08:16:26.281Z,42.12
2023-03-01T08:18:52.721Z,42.10
2023-03-01T08:21:19.717Z,42.08
2023-03-01T08:23:46.501Z,42.08
2023-03-01T08:26:20.136Z,42.79
2023-03-01T08:28:47.989Z,42.01
2023-03-01T08:31:22.207Z,42.29
2023-03-01T08:33:57.428Z,42.23
2023-03-01T08:36:26.620Z,42.02
2023-03-01T08:38:55.137Z,41.92
2023-03-01T08:41:22.058Z,41.72
2023-03-01T08:43:50.986Z,42.25
2023-03-01T08:46:17.722Z,41.84
2023-03-01T08:48:44.173Z,41.81
2023-03-01T08:51:14.179Z,41.53
2023-03-01T08:53:42.716Z,41.55
2023-03-01T08:56:13.043Z,41.16
2023-03-01T08:58:42.519Z,41.41
2023-03-01T09:01:10.612Z,41.61
2023-03-01T09:03:38.766Z,41.41
2023-03-01T09:06:08.613Z,40.98
2023-03-01T09:08:37.040Z,41.14
2023-03-01T09:11:06.922Z,41.28
2023-03-01T09:13:33.946Z,41.09
2023-03-01T09:16:02.437Z,40.89
2023-03-01T09:18:29.059Z,41.23
2023-03-01T09:21:03.378Z,40.59
2023-03-01T09:23:29.967Z,40.68
2023-03-01T09:25:56.670Z,40.77
2023-03-01T09:28:30.001Z,40.66
2023-03-01T09:33:55.757Z,40.85
2023-03-01T09:36:26.451Z,40.72
2023-03-01T09:38:54.120Z,40.13
2023-03-01T09:41:45.376Z,39.78
2023-03-01T09:44:19.976Z,39.20
2023-03-01T09:46:47.197Z,39.74
2023-03-01T09:49:20.480Z,39.28
2023-03-01T09:51:56.739Z,39.79
2023-03-01T09:54:23.438Z,39.79
2023-03-01T09:57:14.322Z,39.22
2023-03-01T09:59:59.489Z,39.32
2023-03-01T10:02:42.659Z,39.25
2023-03-01T10:05:30.245Z,38.54
2023-03-01T10:08:19.255Z,38.87
2023-03-01T10:10:48.365Z,38.41
2023-03-01T10:13:25.108Z,38.19
2023-03-01T10:15:56.135Z,38.84
2023-03-01T10:18:34.748Z,38.55
2023-03-01T10:21:04.359Z,38.56
2023-03-01T10:23:36.777Z,37.63
2023-03-01T10:26:31.278Z,36.32
2023-03-01T10:29:08.767Z,37.30
2023-03-01T10:31:44.091Z,37.78
2023-03-01T10:34:19.429Z,37.73
2023-03-01T10:36:50.609Z,37.12
2023-03-01T10:39:23.137Z,36.88
2023-03-01T10:42:03.128Z,36.40
2023-03-01T10:44:44.946Z,36.14
2023-03-01T10:47:26.391Z,36.70
2023-03-01T10:50:09.678Z,36.32
2023-03-01T10:52:38.755Z,36.85
2023-03-01T10:55:28.061Z,35.38
2023-03-01T10:58:21.088Z,35.77
2023-03-01T11:00:54.530Z,36.83
2023-03-01T11:03:24.713Z,36.50
2023-03-01T11:05:58.148Z,36.11
2023-03-01T11:08:43.481Z,34.89
2023-03-01T11:11:33.249Z,35.33
2023-03-01T11:14:23.654Z,36.17
2023-03-01T11:17:13.809Z,35.33
2023-03-01T11:19:40.322Z,36.39
2023-03-01T11:22:18.952Z,35.64
2023-03-01T11:24:57.250Z,36.04
2023-03-01T11:27:33.877Z,35.12
2023-03-01T11:30:15.278Z,35.15
2023-03-01T11:32:56.341Z,35.41
2023-03-01T11:35:26.384Z,35.51
2023-03-01T11:38:17.889Z,34.64
2023-03-01T11:41:17.718Z,34.51
2023-03-01T11:44:02.419Z,34.87
2023-03-01T11:47:15.713Z,34.31
2023-03-01T11:50:03.177Z,34.70
2023-03-01T11:52:56.048Z,35.49
2023-03-01T11:55:54.557Z,34.00
2023-03-01T11:58:58.058Z,34.45
2023-03-01T12:01:42.177Z,34.54
2023-03-01T12:04:46.160Z,34.04
2023-03-01T12:07:37.102Z,34.27
2023-03-01T12:10:22.975Z,34.50
2023-03-01T12:13:13.270Z,33.78
2023-03-01T12:16:25.921Z,34.12
2023-03-01T12:19:07.195Z,34.59
2023-03-01T12:21:42.082Z,33.60
2023-03-01T12:24:41.275Z,33.72
2023-03-01T12:27:20.711Z,34.02
2023-03-01T12:29:53.256Z,34.45
2023-03-01T12:32:45.434Z,32.62
2023-03-01T12:35:33.909Z,33.38
2023-03-01T12:38:09.128Z,33.76
2023-03-01T12:40:47.708Z,33.40
2023-03-01T12:43:34.162Z,32.74
2023-03-01T12:46:22.130Z,32.77
2023-03-01T12:49:11.776Z,31.95
2023-03-01T12:51:40.398Z,32.88
2023-03-01T12:54:16.024Z,32.33
2023-03-01T12:56:43.762Z,32.77
2023-03-01T12:59:10.058Z,32.59
2023-03-01T13:01:46.841Z,32.58
2023-03-01T13:04:20.472Z,32.95
2023-03-01T13:07:01.090Z,32.32
2023-03-01T13:09:36.474Z,32.24
2023-03-01T13:12:08.056Z,32.53
2023-03-01T13:14:38.145Z,33.04
2023-03-01T13:17:04.653Z,32.40
2023-03-01T13:19:33.422Z,32.43
2023-03-01T13:22:00.415Z,31.75
2023-03-01T13:24:43.387Z,31.63
2023-03-01T13:27:12.417Z,32.32
2023-03-01T13:29:46.118Z,32.26
2023-03-01T13:32:43.135Z,31.62
2023-03-01T13:35:17.952Z,31.01
2023-03-01T13:37:45.491Z,31.57
2023-03-01T13:40:19.517Z,30.93
2023-03-01T13:43:05.184Z,30.60
2023-03-01T13:45:40.522Z,30.73
2023-03-01T13:48:16.080Z,30.89
2023-03-01T13:50:52.533Z,31.20
2023-03-01T13:53:22.276Z,31.37
2023-03-01T13:55:57.005Z,30.75
2023-03-01T13:58:28.129Z,31.45
2023-03-01T14:01:21.054Z,29.99
2023-03-01T14:03:47.678Z,31.37
2023-03-01T14:06:20.874Z,31.03
2023-03-01T14:09:15.559Z,31.09
2023-03-01T14:12:14.383Z,31.41
2023-03-01T14:14:51.094Z,31.36
2023-03-01T14:17:42.888Z,30.42
2023-03-01T14:20:18.133Z,30.26
2023-03-01T14:22:45.817Z,29.97
2023-03-01T14:25:31.015Z,30.20
2023-03-01T14:28:05.438Z,30.19
2023-03-01T14:30:39.407Z,30.93
2023-03-01T14:33:18.789Z,30.93
2023-03-01T14:35:54.924Z,30.23
2023-03-01T14:38:39.309Z,30.41
2023-03-01T14:41:28.524Z,30.46
2023-03-01T14:44:06.591Z,29.61
2023-03-01T14:46:41.840Z,30.86
2023-03-01T14:49:22.826Z,29.62
2023-03-01T14:52:01.590Z,29.85
2023-03-01T14:54:58.441Z,30.28
2023-03-01T14:57:27.321Z,30.15
2023-03-01T14:59:58.222Z,30.64
2023-03-01T15:02:28.220Z,30.62
2023-03-01T15:05:08.071Z,29.24
2023-03-01T15:07:41.508Z,30.06
2023-03-01T15:10:18.447Z,29.20
2023-03-01T15:12:45.104Z,30.40
2023-03-01T15:15:31.070Z,29.37
2023-03-01T15:18:04.126Z,29.92
2023-03-01T15:20:36.167Z,30.79
2023-03-01T15:23:03.499Z,30.51
2023-03-01T15:25:31.968Z,30.47
2023-03-01T15:28:01.227Z,30.16
2023-03-01T15:30:38.685Z,29.13
2023-03-01T15:33:36.126Z,28.32
2023-03-01T15:36:24.718Z,29.58
2023-03-01T15:38:56.419Z,29.97
2023-03-01T15:41:29.383Z,29.26
2023-03-01T15:43:56.648Z,29.20
2023-03-01T15:46:31.087Z,29.27
2023-03-01T15:49:00.774Z,29.46
2023-03-01T15:51:46.913Z,28.82
2023-03-01T15:54:22.085Z,29.35
2023-03-01T15:56:49.588Z,30.00
2023-03-01T15:59:16.221Z,30.33
2023-03-01T16:01:44.954Z,30.00
2023-03-01T16:04:21.439Z,30.04
2023-03-01T16:06:54.879Z,30.07
2023-03-01T16:09:23.967Z,29.67
2023-03-01T16:11:51.645Z,29.81
2023-03-01T16:14:18.204Z,30.13
2023-03-01T16:16:45.222Z,29.81
2023-03-01T16:19:12.414Z,29.59
2023-03-01T16:21:39.150Z,30.18
2023-03-01T16:24:06.096Z,30.12
2023-03-01T16:26:33.227Z,30.04
2023-03-01T16:28:59.997Z,29.71
2023-03-01T16:31:30.114Z,29.69
2023-03-01T16:33:58.564Z,29.55
2023-03-01T16:36:28.970Z,29.93
2023-03-01T16:38:58.527Z,30.12
2023-03-01T16:41:25.655Z,29.62
2023-03-01T16:43:52.300Z,29.55
2023-03-01T16:46:25.592Z,28.79
2023-03-01T16:48:53.200Z,29.45
2023-03-01T16:51:21.059Z,29.21
2023-03-01T16:53:48.045Z,29.95
2023-03-01T16:56:15.483Z,28.79
2023-03-01T16:58:42.631Z,29.44
2023-03-01T17:01:15.252Z,29.17
2023-03-01T17:03:42.370Z,29.70
2023-03-01T17:06:15.214Z,29.02
2023-03-01T17:08:41.989Z,29.27
2023-03-01T17:11:15.082Z,29.08
2023-03-01T17:13:42.419Z,29.43
2023-03-01T17:16:11.845Z,29.82
2023-03-01T17:18:38.963Z,29.80
2023-03-01T17:21:07.781Z,29.56
2023-03-01T17:23:35.860Z,29.86
2023-03-01T17:26:02.717Z,29.74
2023-03-01T17:28:31.849Z,29.90
2023-03-01T17:31:00.289Z,29.99
2023-03-01T17:33:27.432Z,30.02
2023-03-01T17:35:56.494Z,29.66
2023-03-01T17:38:23.066Z,30.10
2023-03-01T17:40:49.897Z,30.09
2023-03-01T17:43:18.005Z,30.08
2023-03-01T17:45:48.738Z,30.02
2023-03-01T17:48:17.031Z,30.18
2023-03-01T17:50:43.624Z,30.13
2023-03-01T17:53:10.526Z,30.30
2023-03-01T17:55:38.237Z,30.22
2023-03-01T17:58:06.012Z,30.09
2023-03-01T18:00:32.537Z,30.47
2023-03-01T18:02:59.075Z,30.21
2023-03-01T18:05:26.131Z,30.71
2023-03-01T18:07:53.611Z,30.40
2023-03-01T18:10:20.596Z,30.68
2023-03-01T18:12:47.039Z,30.58
2023-03-01T18:15:13.425Z,30.90
2023-03-01T18:17:40.703Z,30.44
2023-03-01T18:20:07.962Z,30.57
2023-03-01T18:22:34.394Z,31.17
2023-03-01T18:25:01.777Z,31.44
2023-03-01T18:27:28.237Z,30.66
2023-03-01T18:29:57.035Z,31.08
2023-03-01T18:32:24.808Z,31.19
2023-03-01T18:34:51.249Z,31.54
2023-03-01T18:37:18.721Z,31.10
2023-03-01T18:39:45.094Z,31.80
2023-03-01T18:42:11.751Z,31.75
2023-03-01T18:44:38.510Z,31.38
2023-03-01T18:47:06.030Z,31.45
2023-03-01T18:49:32.360Z,31.73
2023-03-01T18:52:00.150Z,32.07
2023-03-01T18:54:26.460Z,31.61
2023-03-01T18:56:52.883Z,32.07
2023-03-01T18:59:19.474Z,32.26
2023-03-01T19:01:45.948Z,31.83
2023-03-01T19:04:12.721Z,32.04
2023-03-01T19:06:39.298Z,32.11
2023-03-01T19:09:08.861Z,32.58
2023-03-01T19:11:35.852Z,32.09
2023-03-01T19:14:03.761Z,32.51
2023-03-01T19:16:36.814Z,32.27
2023-03-01T19:19:06.323Z,32.74
2023-03-01T19:21:33.504Z,32.41
2023-03-01T19:24:02.563Z,32.45
2023-03-01T19:26:29.156Z,32.29
2023-03-01T19:28:56.652Z,32.70
2023-03-01T19:31:26.205Z,32.25
2023-03-01T19:33:59.416Z,33.00
2023-03-01T19:36:35.024Z,32.40
2023-03-01T19:39:04.011Z,32.92
2023-03-01T19:41:31.280Z,32.38
2023-03-01T19:43:58.156Z,32.77
2023-03-01T19:46:25.504Z,32.99
2023-03-01T19:48:53.556Z,32.89
2023-03-01T19:51:20.183Z,33.48
2023-03-01T19:53:47.537Z,32.85
2023-03-01T19:56:13.905Z,33.05
2023-03-01T19:58:40.319Z,32.68
2023-03-01T20:01:15.329Z,33.03
2023-03-01T20:03:42.240Z,33.15
2023-03-01T20:06:14.644Z,32.94
2023-03-01T20:08:41.157Z,33.42
2023-03-01T20:11:10.063Z,33.48
2023-03-01T20:13:37.022Z,33.47
2023-03-01T20:16:04.960Z,33.47
2023-03-01T20:18:32.069Z,33.19
2023-03-01T20:20:59.885Z,33.53
2023-03-01T20:23:26.862Z,33.58
2023-03-01T20:26:01.901Z,33.34
2023-03-01T20:28:28.265Z,33.50
2023-03-01T20:30:54.855Z,33.62
2023-03-01T20:33:21.211Z,33.89
2023-03-01T20:35:47.827Z,33.28
2023-03-01T20:38:14.229Z,34.16
2023-03-01T20:40:40.822Z,33.41
2023-03-01T20:43:07.185Z,33.75
2023-03-01T20:45:33.544Z,33.87
2023-03-01T20:48:00.222Z,34.05
2023-03-01T20:50:26.784Z,34.12
2023-03-01T20:52:53.370Z,34.04
2023-03-01T20:55:19.747Z,33.81
2023-03-01T20:57:46.056Z,34.11
2023-03-01T21:00:13.004Z,33.54
2023-03-01T21:02:39.380Z,33.50
2023-03-01T21:05:06.707Z,33.88
2023-03-01T21:07:33.339Z,33.49
2023-03-01T21:09:59.934Z,33.92
2023-03-01T21:12:26.513Z,34.02
2023-03-01T21:15:09.722Z,33.96
2023-03-01T21:17:37.601Z,34.27
2023-03-01T21:20:04.965Z,34.26
2023-03-01T21:22:32.955Z,34.43
2023-03-01T21:24:59.320Z,34.19
2023-03-01T21:27:25.638Z,33.85
2023-03-01T21:29:52.048Z,34.03
2023-03-01T21:32:21.086Z,34.36
2023-03-01T21:34:47.967Z,33.75
2023-03-01T21:37:14.416Z,33.82
2023-03-01T21:39:41.021Z,33.81
2023-03-01T21:42:07.379Z,33.65
2023-03-01T21:44:34.286Z,33.90
2023-03-01T21:47:00.909Z,34.40
2023-03-01T21:49:27.972Z,34.06
2023-03-01T21:51:54.851Z,33.86
2023-03-01T21:54:21.506Z,34.02
2023-03-01T21:56:50.838Z,33.82
2023-03-01T21:59:24.306Z,34.04
2023-03-01T22:01:51.924Z,34.40
2023-03-01T22:04:19.958Z,34.27
2023-03-01T22:06:47.291Z,34.02
2023-03-01T22:09:21.867Z,34.57
2023-03-01T22:11:50.122Z,34.53
2023-03-01T22:14:18.265Z,34.52
2023-03-01T22:16:45.637Z,34.16
2023-03-01T22:19:14.816Z,33.91
2023-03-01T22:21:43.827Z,34.09
2023-03-01T22:24:12.151Z,34.44
2023-03-01T22:26:44.364Z,33.89
2023-03-01T22:29:14.908Z,34.19
2023-03-01T22:31:41.990Z,34.03
2023-03-01T22:34:08.754Z,34.62
2023-03-01T22:36:35.467Z,33.96
2023-03-01T22:39:02.488Z,34.61
2023-03-01T22:41:39.248Z,34.38
2023-03-01T22:44:05.561Z,34.79
2023-03-01T22:46:32.657Z,34.07
2023-03-01T22:48:59.500Z,34.39
2023-03-01T22:51:34.788Z,34.96
2023-03-01T22:54:01.472Z,34.62
2023-03-01T22:56:34.663Z,34.63
2023-03-01T22:59:09.582Z,34.77
2023-03-01T23:01:37.738Z,34.27
2023-03-01T23:04:04.371Z,35.02
2023-03-01T23:06:31.704Z,34.30
2023-03-01T23:09:01.274Z,34.18
2023-03-01T23:11:28.127Z,34.86
2023-03-01T23:13:54.947Z,35.14
2023-03-01T23:16:26.169Z,34.54
2023-03-01T23:18:58.169Z,35.01
2023-03-01T23:21:24.982Z,35.02
2023-03-01T23:23:51.716Z,34.61
2023-03-01T23:26:18.549Z,34.40
2023-03-01T23:28:45.261Z,34.77
2023-03-01T23:31:14.127Z,35.00
2023-03-01T23:33:43.350Z,35.23
2023-03-01T23:36:21.569Z,34.68
2023-03-01T23:38:49.919Z,35.05
2023-03-01T23:41:19.579Z,34.77
2023-03-01T23:43:47.372Z,35.31
2023-03-01T23:46:17.927Z,35.29
2023-03-01T23:48:45.624Z,34.72
2023-03-01T23:51:13.557Z,35.09
2023-03-01T23:53:43.132Z,35.00
2023-03-01T23:56:13.397Z,34.46
2023-03-01T23:58:40.042Z,34.49
